createdAt,value
2017-11-19T00:00:06.629Z,0.00
2017-11-19T00:01:06.622Z,0.00
2017-11-19T00:02:06.617Z,0.00
2017-11-19T00:03:06.609Z,0.00
2017-11-19T00:04:06.604Z,0.00
2017-11-19T00:05:06.602Z,0.00
2017-11-19T00:06:06.592Z,0.00
2017-11-19T00:07:06.586Z,0.00
2017-11-19T00:08:06.581Z,0.00
2017-11-19T00:09:06.576Z,0.00
2017-11-19T00:10:06.568Z,0.00
2017-11-19T00:11:06.562Z,0.00
2017-11-19T00:12:06.557Z,0.00
2017-11-19T00:13:06.551Z,0.00
2017-11-19T00:14:06.546Z,0.00
2017-11-19T00:15:06.546Z,0.00
2017-11-19T00:16:06.533Z,0.00
2017-11-19T00:17:06.527Z,0.00
2017-11-19T00:18:06.569Z,0.00
2017-11-19T00:19:06.514Z,0.00
2017-11-19T00:20:06.511Z,0.00
2017-11-19T00:21:06.502Z,0.00
2017-11-19T00:22:06.496Z,0.00
2017-11-19T00:23:06.492Z,0.00
2017-11-19T00:24:06.484Z,0.00
2017-11-19T00:25:06.479Z,0.00
2017-11-19T00:26:06.474Z,0.00
2017-11-19T00:27:06.467Z,0.00
2017-11-19T00:28:06.461Z,0.00
2017-11-19T00:29:06.454Z,0.00
2017-11-19T00:30:06.449Z,0.00
2017-11-19T00:31:06.440Z,0.00
2017-11-19T00:32:06.436Z,0.00
2017-11-19T00:33:06.430Z,0.00
2017-11-19T00:34:06.425Z,0.00
2017-11-19T00:35:06.419Z,0.00
2017-11-19T00:36:06.412Z,0.00
2017-11-19T00:37:06.406Z,0.00
2017-11-19T00:38:06.399Z,0.00
2017-11-19T00:39:06.394Z,0.00
2017-11-19T00:40:06.388Z,0.00
2017-11-19T00:41:06.382Z,0.00
2017-11-19T00:42:06.376Z,0.00
2017-11-19T00:43:06.368Z,0.00
2017-11-19T00:44:06.363Z,0.00
2017-11-19T00:45:06.358Z,0.00
2017-11-19T00:46:06.352Z,0.00
2017-11-19T00:47:06.345Z,0.00
2017-11-19T00:48:06.340Z,0.00
2017-11-19T00:49:06.334Z,0.00
2017-11-19T00:50:06.328Z,0.00
2017-11-19T00:51:06.323Z,0.00
2017-11-19T00:52:06.325Z,0.00
2017-11-19T00:53:06.311Z,0.00
2017-11-19T00:54:06.304Z,0.00
2017-11-19T00:55:06.299Z,0.00
2017-11-19T00:56:06.299Z,0.00
2017-11-19T00:57:06.286Z,0.00
2017-11-19T00:58:06.285Z,0.00
2017-11-19T00:59:06.275Z,0.00
2017-11-19T01:00:06.271Z,0.00
2017-11-19T01:01:06.264Z,0.00
2017-11-19T01:02:06.255Z,0.00
2017-11-19T01:03:06.250Z,0.00
2017-11-19T01:04:06.244Z,0.00
2017-11-19T01:05:06.238Z,0.00
2017-11-19T01:06:06.231Z,0.00
2017-11-19T01:07:06.225Z,0.00
2017-11-19T01:08:06.219Z,0.00
2017-11-19T01:09:06.212Z,0.00
2017-11-19T01:10:06.205Z,0.00
2017-11-19T01:11:06.201Z,0.00
2017-11-19T01:12:06.199Z,0.00
2017-11-19T01:13:06.187Z,0.00
2017-11-19T01:14:06.182Z,0.00
2017-11-19T01:15:06.175Z,0.00
2017-11-19T01:16:06.172Z,0.00
2017-11-19T01:17:06.164Z,0.00
2017-11-19T01:18:06.156Z,0.00
2017-11-19T01:19:06.151Z,0.00
2017-11-19T01:20:06.148Z,0.00
2017-11-19T01:21:06.139Z,0.00
2017-11-19T01:22:06.132Z,0.00
2017-11-19T01:23:06.127Z,0.00
2017-11-19T01:24:06.120Z,0.00
2017-11-19T01:25:06.114Z,0.00
2017-11-19T01:26:06.108Z,0.00
2017-11-19T01:27:06.102Z,0.00
2017-11-19T01:28:06.099Z,0.00
2017-11-19T01:29:06.095Z,0.00
2017-11-19T01:30:06.082Z,0.00
2017-11-19T01:31:06.076Z,0.00
2017-11-19T01:32:06.071Z,0.00
2017-11-19T01:33:06.064Z,0.00
2017-11-19T01:34:06.059Z,0.00
2017-11-19T01:35:06.053Z,0.00
2017-11-19T01:36:06.046Z,0.00
2017-11-19T01:37:06.041Z,0.00
2017-11-19T01:38:06.035Z,0.00
2017-11-19T01:39:06.028Z,0.00
2017-11-19T01:40:06.023Z,0.00
2017-11-19T01:41:06.016Z,0.00
2017-11-19T01:42:06.012Z,0.00
2017-11-19T01:43:06.054Z,0.00
2017-11-19T01:44:05.999Z,0.00
2017-11-19T01:45:05.993Z,0.00
2017-11-19T01:46:05.986Z,0.00
2017-11-19T01:47:05.980Z,0.00
2017-11-19T01:48:05.976Z,0.00
2017-11-19T01:49:05.971Z,0.00
2017-11-19T01:50:05.971Z,0.00
2017-11-19T01:51:05.957Z,0.00
2017-11-19T01:52:05.952Z,0.00
2017-11-19T01:53:05.945Z,0.00
2017-11-19T01:54:05.941Z,0.00
2017-11-19T01:55:05.933Z,0.00
2017-11-19T01:56:05.928Z,0.00
2017-11-19T01:57:05.922Z,0.00
2017-11-19T01:58:05.966Z,0.00
2017-11-19T01:59:05.915Z,0.00
2017-11-19T02:00:05.905Z,0.00
2017-11-19T02:01:05.899Z,0.00
2017-11-19T02:02:05.893Z,0.00
2017-11-19T02:03:05.887Z,0.00
2017-11-19T02:04:05.881Z,0.00
2017-11-19T02:05:05.875Z,0.00
2017-11-19T02:06:05.869Z,0.00
2017-11-19T02:07:05.863Z,0.00
2017-11-19T02:08:05.857Z,0.00
2017-11-19T02:09:05.851Z,0.00
2017-11-19T02:10:05.844Z,0.00
2017-11-19T02:11:05.888Z,0.00
2017-11-19T02:12:05.834Z,0.00
2017-11-19T02:13:05.826Z,0.00
2017-11-19T02:14:05.819Z,0.00
2017-11-19T02:15:05.814Z,0.00
2017-11-19T02:16:05.807Z,0.00
2017-11-19T02:17:05.801Z,0.00
2017-11-19T02:18:05.809Z,0.00
2017-11-19T02:19:05.788Z,0.00
2017-11-19T02:20:05.790Z,0.00
2017-11-19T02:21:05.776Z,0.00
2017-11-19T02:22:05.770Z,0.00
2017-11-19T02:23:05.763Z,0.00
2017-11-19T02:24:05.758Z,0.00
2017-11-19T02:25:05.751Z,0.00
2017-11-19T02:26:05.744Z,0.00
2017-11-19T02:27:05.738Z,0.00
2017-11-19T02:28:05.763Z,0.00
2017-11-19T02:29:05.727Z,0.00
2017-11-19T02:30:05.722Z,0.00
2017-11-19T02:31:05.712Z,0.00
2017-11-19T02:32:05.707Z,0.00
2017-11-19T02:33:05.702Z,0.00
2017-11-19T02:34:05.692Z,0.00
2017-11-19T02:35:05.687Z,0.00
2017-11-19T02:36:05.680Z,0.00
2017-11-19T02:37:05.673Z,0.00
2017-11-19T02:38:05.667Z,0.00
2017-11-19T02:39:05.662Z,0.00
2017-11-19T02:40:05.654Z,0.00
2017-11-19T02:41:05.654Z,0.00
2017-11-19T02:42:05.641Z,0.00
2017-11-19T02:43:05.636Z,0.00
2017-11-19T02:44:05.629Z,0.00
2017-11-19T02:45:05.622Z,0.00
2017-11-19T02:46:05.615Z,0.00
2017-11-19T02:47:05.609Z,0.00
2017-11-19T02:48:05.602Z,0.00
2017-11-19T02:49:05.596Z,0.00
2017-11-19T02:50:05.589Z,0.00
2017-11-19T02:51:05.582Z,0.00
2017-11-19T02:52:05.576Z,0.00
2017-11-19T02:53:05.720Z,0.00
2017-11-19T02:54:05.562Z,0.00
2017-11-19T02:55:05.556Z,0.00
2017-11-19T02:56:05.553Z,0.00
2017-11-19T02:57:05.545Z,0.00
2017-11-19T02:58:05.537Z,0.00
2017-11-19T02:59:05.531Z,0.00
2017-11-19T03:00:05.525Z,0.00
2017-11-19T03:01:05.519Z,0.00
2017-11-19T03:02:05.511Z,0.00
2017-11-19T03:03:05.506Z,0.00
2017-11-19T03:04:05.505Z,0.00
2017-11-19T03:05:05.493Z,0.00
2017-11-19T03:06:05.487Z,0.00
2017-11-19T03:07:05.481Z,0.00
2017-11-19T03:08:05.476Z,0.00
2017-11-19T03:09:05.518Z,0.00
2017-11-19T03:10:05.463Z,0.00
2017-11-19T03:11:05.455Z,0.00
2017-11-19T03:12:05.449Z,0.00
2017-11-19T03:13:05.444Z,0.00
2017-11-19T03:14:05.437Z,0.00
2017-11-19T03:15:05.533Z,0.00
2017-11-19T03:16:05.425Z,0.00
2017-11-19T03:17:05.422Z,0.00
2017-11-19T03:18:05.412Z,0.00
2017-11-19T03:19:05.407Z,0.00
2017-11-19T03:20:05.401Z,0.00
2017-11-19T03:21:05.395Z,0.00
2017-11-19T03:22:05.388Z,0.00
2017-11-19T03:23:05.384Z,0.00
2017-11-19T03:24:05.377Z,0.00
2017-11-19T03:25:05.373Z,0.00
2017-11-19T03:26:05.367Z,0.00
2017-11-19T03:27:05.364Z,0.00
2017-11-19T03:28:05.355Z,0.00
2017-11-19T03:29:05.345Z,0.00
2017-11-19T03:30:05.343Z,0.00
2017-11-19T03:31:05.335Z,0.00
2017-11-19T03:32:05.329Z,0.00
2017-11-19T03:33:05.322Z,0.00
2017-11-19T03:34:05.317Z,0.00
2017-11-19T03:35:05.310Z,0.00
2017-11-19T03:36:05.304Z,0.00
2017-11-19T03:37:05.298Z,0.00
2017-11-19T03:38:05.292Z,0.00
2017-11-19T03:39:05.286Z,0.00
2017-11-19T03:40:05.280Z,0.00
2017-11-19T03:41:05.275Z,0.00
2017-11-19T03:42:05.268Z,0.00
2017-11-19T03:43:05.262Z,0.00
2017-11-19T03:44:05.256Z,0.00
2017-11-19T03:45:05.250Z,0.00
2017-11-19T03:46:05.243Z,0.00
2017-11-19T03:47:05.238Z,0.00
2017-11-19T03:48:05.232Z,0.00
2017-11-19T03:49:05.226Z,0.00
2017-11-19T03:50:05.220Z,0.00
2017-11-19T03:51:05.213Z,0.00
2017-11-19T03:52:05.208Z,0.00
2017-11-19T03:53:05.202Z,0.00
2017-11-19T03:54:05.195Z,0.00
2017-11-19T03:55:05.196Z,0.00
2017-11-19T03:56:05.188Z,0.00
2017-11-19T03:57:05.177Z,0.00
2017-11-19T03:58:05.171Z,0.00
2017-11-19T03:59:05.165Z,0.00
2017-11-19T04:00:05.162Z,0.00
2017-11-19T04:01:05.153Z,0.00
2017-11-19T04:02:05.145Z,0.00
2017-11-19T04:03:05.139Z,0.00
2017-11-19T04:04:05.134Z,0.00
2017-11-19T04:05:05.128Z,0.00
2017-11-19T04:06:05.121Z,0.00
2017-11-19T04:07:05.120Z,0.00
2017-11-19T04:08:05.110Z,0.00
2017-11-19T04:09:05.127Z,0.00
2017-11-19T04:10:05.097Z,0.00
2017-11-19T04:11:05.092Z,0.00
2017-11-19T04:12:05.084Z,0.00
2017-11-19T04:13:05.079Z,0.00
2017-11-19T04:14:05.072Z,0.00
2017-11-19T04:15:05.066Z,0.00
2017-11-19T04:16:05.061Z,0.00
2017-11-19T04:17:05.055Z,0.00
2017-11-19T04:18:05.048Z,0.00
2017-11-19T04:19:05.043Z,0.00
2017-11-19T04:20:05.037Z,0.00
2017-11-19T04:21:05.029Z,0.00
2017-11-19T04:22:05.024Z,0.00
2017-11-19T04:23:05.018Z,0.00
2017-11-19T04:24:05.012Z,0.00
2017-11-19T04:25:05.007Z,0.00
2017-11-19T04:26:05.007Z,0.00
2017-11-19T04:27:04.994Z,0.00
2017-11-19T04:28:04.997Z,0.00
2017-11-19T04:29:04.989Z,0.00
2017-11-19T04:30:04.980Z,0.00
2017-11-19T04:31:04.970Z,0.00
2017-11-19T04:32:04.964Z,0.00
2017-11-19T04:33:04.958Z,0.00
2017-11-19T04:34:04.952Z,0.00
2017-11-19T04:35:04.947Z,0.00
2017-11-19T04:36:04.944Z,0.00
2017-11-19T04:37:04.936Z,0.00
2017-11-19T04:38:04.928Z,0.00
2017-11-19T04:39:04.923Z,0.00
2017-11-19T04:40:04.917Z,0.00
2017-11-19T04:41:04.912Z,0.00
2017-11-19T04:42:04.905Z,0.00
2017-11-19T04:43:04.899Z,0.00
2017-11-19T04:44:04.894Z,0.00
2017-11-19T04:45:04.890Z,0.00
2017-11-19T04:46:04.882Z,0.00
2017-11-19T04:47:04.876Z,0.00
2017-11-19T04:48:04.872Z,0.00
2017-11-19T04:49:04.865Z,0.00
2017-11-19T04:50:04.859Z,0.00
2017-11-19T04:51:04.852Z,0.00
2017-11-19T04:52:04.856Z,0.00
2017-11-19T04:53:04.846Z,0.00
2017-11-19T04:54:04.836Z,0.00
2017-11-19T04:55:04.829Z,0.00
2017-11-19T04:56:04.825Z,0.00
2017-11-19T04:57:04.819Z,0.00
2017-11-19T04:58:04.814Z,0.00
2017-11-19T04:59:04.806Z,0.00
2017-11-19T05:00:04.800Z,0.00
2017-11-19T05:01:04.796Z,0.00
2017-11-19T05:02:04.793Z,0.00
2017-11-19T05:03:04.782Z,0.00
2017-11-19T05:04:04.777Z,0.00
2017-11-19T05:05:04.791Z,0.00
2017-11-19T05:06:04.764Z,0.00
2017-11-19T05:07:04.759Z,0.00
2017-11-19T05:08:04.755Z,0.00
2017-11-19T05:09:04.747Z,0.00
2017-11-19T05:10:04.741Z,0.00
2017-11-19T05:11:04.735Z,0.00
2017-11-19T05:12:04.729Z,0.00
2017-11-19T05:13:04.723Z,0.00
2017-11-19T05:14:04.717Z,0.00
2017-11-19T05:15:04.711Z,0.00
2017-11-19T05:16:04.708Z,0.00
2017-11-19T05:17:04.700Z,0.00
2017-11-19T05:18:04.693Z,0.00
2017-11-19T05:19:04.695Z,0.00
2017-11-19T05:20:04.682Z,0.00
2017-11-19T05:21:04.677Z,0.00
2017-11-19T05:22:04.669Z,0.00
2017-11-19T05:23:04.664Z,0.00
2017-11-19T05:24:04.660Z,0.00
2017-11-19T05:25:04.654Z,0.00
2017-11-19T05:26:04.697Z,0.00
2017-11-19T05:27:04.654Z,0.00
2017-11-19T05:28:04.637Z,0.00
2017-11-19T05:29:04.631Z,0.00
2017-11-19T05:30:04.624Z,0.00
2017-11-19T05:31:04.626Z,0.00
2017-11-19T05:32:04.614Z,0.00
2017-11-19T05:33:04.608Z,0.00
2017-11-19T05:34:04.601Z,0.00
2017-11-19T05:35:04.597Z,0.00
2017-11-19T05:36:04.597Z,0.00
2017-11-19T05:37:04.585Z,0.00
2017-11-19T05:38:04.580Z,0.00
2017-11-19T05:39:04.576Z,0.00
2017-11-19T05:40:04.570Z,0.00
2017-11-19T05:41:04.570Z,0.00
2017-11-19T05:42:04.557Z,0.00
2017-11-19T05:43:04.553Z,0.00
2017-11-19T05:44:04.545Z,0.00
2017-11-19T05:45:04.541Z,0.00
2017-11-19T05:46:04.534Z,0.00
2017-11-19T05:47:04.579Z,0.00
2017-11-19T05:48:04.524Z,0.00
2017-11-19T05:49:04.516Z,0.00
2017-11-19T05:50:04.512Z,0.00
2017-11-19T05:51:04.505Z,0.00
2017-11-19T05:52:04.501Z,0.00
2017-11-19T05:53:04.495Z,0.00
2017-11-19T05:54:04.488Z,0.00
2017-11-19T05:55:04.532Z,0.00
2017-11-19T05:56:04.479Z,0.00
2017-11-19T05:57:04.472Z,0.00
2017-11-19T05:58:04.465Z,0.00
2017-11-19T05:59:04.467Z,0.00
2017-11-19T06:00:04.453Z,0.00
2017-11-19T06:01:04.749Z,0.00
2017-11-19T06:02:04.441Z,0.00
2017-11-19T06:03:04.437Z,0.00
2017-11-19T06:04:04.430Z,0.00
2017-11-19T06:05:04.424Z,0.00
2017-11-19T06:06:04.471Z,0.00
2017-11-19T06:07:04.413Z,0.00
2017-11-19T06:08:04.408Z,0.00
2017-11-19T06:09:04.401Z,0.00
2017-11-19T06:10:04.395Z,4.00
2017-11-19T06:11:04.389Z,4.00
2017-11-19T06:12:04.385Z,4.00
2017-11-19T06:13:04.384Z,0.00
2017-11-19T06:14:04.372Z,4.00
2017-11-19T06:15:04.366Z,4.00
2017-11-19T06:16:04.364Z,4.00
2017-11-19T06:17:04.356Z,4.00
2017-11-19T06:18:04.349Z,4.00
2017-11-19T06:19:04.343Z,8.00
2017-11-19T06:20:04.339Z,4.00
2017-11-19T06:21:04.333Z,4.00
2017-11-19T06:22:04.329Z,8.00
2017-11-19T06:23:04.320Z,8.00
2017-11-19T06:24:04.314Z,12.00
2017-11-19T06:25:04.309Z,8.00
2017-11-19T06:26:04.302Z,12.00
2017-11-19T06:27:04.298Z,16.00
2017-11-19T06:28:04.296Z,16.00
2017-11-19T06:29:04.285Z,20.00
2017-11-19T06:30:04.278Z,20.00
2017-11-19T06:31:04.273Z,20.00
2017-11-19T06:32:04.268Z,24.00
2017-11-19T06:33:04.263Z,24.00
2017-11-19T06:34:04.255Z,28.00
2017-11-19T06:35:04.249Z,24.00
2017-11-19T06:36:04.244Z,24.00
2017-11-19T06:37:04.238Z,24.00
2017-11-19T06:38:04.232Z,28.00
2017-11-19T06:39:04.226Z,28.00
2017-11-19T06:40:04.224Z,28.00
2017-11-19T06:41:04.267Z,28.00
2017-11-19T06:42:04.211Z,28.00
2017-11-19T06:43:04.204Z,32.00
2017-11-19T06:44:04.197Z,40.00
2017-11-19T06:45:04.192Z,52.00
2017-11-19T06:46:04.188Z,52.00
2017-11-19T06:47:04.181Z,56.00
2017-11-19T06:48:04.175Z,68.00
2017-11-19T06:49:04.169Z,80.00
2017-11-19T06:50:04.164Z,84.00
2017-11-19T06:51:04.158Z,68.00
2017-11-19T06:52:04.153Z,60.00
2017-11-19T06:53:04.146Z,52.00
2017-11-19T06:54:04.143Z,48.00
2017-11-19T06:55:04.134Z,52.00
2017-11-19T06:56:04.128Z,52.00
2017-11-19T06:57:04.126Z,48.00
2017-11-19T06:58:04.117Z,52.00
2017-11-19T06:59:04.112Z,60.00
2017-11-19T07:00:04.107Z,72.00
2017-11-19T07:01:04.101Z,76.00
2017-11-19T07:02:04.094Z,72.00
2017-11-19T07:03:04.090Z,80.00
2017-11-19T07:04:04.087Z,76.00
2017-11-19T07:05:04.079Z,68.00
2017-11-19T07:06:04.073Z,68.00
2017-11-19T07:07:04.067Z,72.00
2017-11-19T07:08:04.063Z,80.00
2017-11-19T07:09:04.057Z,84.00
2017-11-19T07:10:04.051Z,84.00
2017-11-19T07:11:04.048Z,84.00
2017-11-19T07:12:04.041Z,84.00
2017-11-19T07:13:04.035Z,88.00
2017-11-19T07:14:04.029Z,104.00
2017-11-19T07:15:04.023Z,116.00
2017-11-19T07:16:04.017Z,116.00
2017-11-19T07:17:04.012Z,116.00
2017-11-19T07:18:04.007Z,128.00
2017-11-19T07:19:04.001Z,140.00
2017-11-19T07:20:03.995Z,132.00
2017-11-19T07:21:03.989Z,132.00
2017-11-19T07:22:03.983Z,140.00
2017-11-19T07:23:03.978Z,136.00
2017-11-19T07:24:03.986Z,128.00
2017-11-19T07:25:03.966Z,132.00
2017-11-19T07:26:03.993Z,140.00
2017-11-19T07:27:03.953Z,148.00
2017-11-19T07:28:03.948Z,176.00
2017-11-19T07:29:03.942Z,196.00
2017-11-19T07:30:03.934Z,188.00
2017-11-19T07:31:03.929Z,196.00
2017-11-19T07:32:03.923Z,212.00
2017-11-19T07:33:03.916Z,220.00
2017-11-19T07:34:03.911Z,228.00
2017-11-19T07:35:03.904Z,224.00
2017-11-19T07:36:03.898Z,208.00
2017-11-19T07:37:03.892Z,200.00
2017-11-19T07:38:03.886Z,216.00
2017-11-19T07:39:03.879Z,252.00
2017-11-19T07:40:03.873Z,272.00
2017-11-19T07:41:03.917Z,304.00
2017-11-19T07:42:03.859Z,300.00
2017-11-19T07:43:03.854Z,304.00
2017-11-19T07:44:03.847Z,316.00
2017-11-19T07:45:03.842Z,344.00
2017-11-19T07:46:03.833Z,392.00
2017-11-19T07:47:03.828Z,440.00
2017-11-19T07:48:03.820Z,468.00
2017-11-19T07:49:03.815Z,480.00
2017-11-19T07:50:03.808Z,472.00
2017-11-19T07:51:03.853Z,536.00
2017-11-19T07:52:03.795Z,580.00
2017-11-19T07:53:03.790Z,608.00
2017-11-19T07:54:03.782Z,636.00
2017-11-19T07:55:03.776Z,612.00
2017-11-19T07:56:03.769Z,572.00
2017-11-19T07:57:03.764Z,544.00
2017-11-19T07:58:03.756Z,588.00
2017-11-19T07:59:03.750Z,528.00
2017-11-19T08:00:03.754Z,528.00
2017-11-19T08:01:03.736Z,488.00
2017-11-19T08:02:03.731Z,432.00
2017-11-19T08:03:03.724Z,400.00
2017-11-19T08:04:03.719Z,364.00
2017-11-19T08:05:03.723Z,352.00
2017-11-19T08:06:03.706Z,428.00
2017-11-19T08:07:03.749Z,468.00
2017-11-19T08:08:03.693Z,516.00
2017-11-19T08:09:03.685Z,396.00
2017-11-19T08:10:03.680Z,304.00
2017-11-19T08:11:03.672Z,360.00
2017-11-19T08:12:03.667Z,444.00
2017-11-19T08:13:03.661Z,520.00
2017-11-19T08:14:03.654Z,608.00
2017-11-19T08:15:03.649Z,608.00
2017-11-19T08:16:03.641Z,592.00
2017-11-19T08:17:03.636Z,620.00
2017-11-19T08:18:03.629Z,644.00
2017-11-19T08:19:03.624Z,688.00
2017-11-19T08:20:03.617Z,696.00
2017-11-19T08:21:03.610Z,704.00
2017-11-19T08:22:03.604Z,712.00
2017-11-19T08:23:03.597Z,716.00
2017-11-19T08:24:03.591Z,744.00
2017-11-19T08:25:03.585Z,792.00
2017-11-19T08:26:03.578Z,860.00
2017-11-19T08:27:03.572Z,784.00
2017-11-19T08:28:03.565Z,832.00
2017-11-19T08:29:03.560Z,900.00
2017-11-19T08:30:03.553Z,876.00
2017-11-19T08:31:03.547Z,732.00
2017-11-19T08:32:03.541Z,608.00
2017-11-19T08:33:03.536Z,636.00
2017-11-19T08:34:03.528Z,760.00
2017-11-19T08:35:03.522Z,696.00
2017-11-19T08:36:03.515Z,640.00
2017-11-19T08:37:03.510Z,528.00
2017-11-19T08:38:03.503Z,620.00
2017-11-19T08:39:03.499Z,736.00
2017-11-19T08:40:03.492Z,848.00
2017-11-19T08:41:03.485Z,928.00
2017-11-19T08:42:03.527Z,1080.00
2017-11-19T08:43:03.472Z,1204.00
2017-11-19T08:44:03.465Z,1320.00
2017-11-19T08:45:03.510Z,1520.00
2017-11-19T08:46:03.452Z,1236.00
2017-11-19T08:47:03.447Z,920.00
2017-11-19T08:48:03.462Z,600.00
2017-11-19T08:49:03.434Z,640.00
2017-11-19T08:50:03.428Z,808.00
2017-11-19T08:51:03.421Z,1048.00
2017-11-19T08:52:03.415Z,1272.00
2017-11-19T08:53:03.409Z,1580.00
2017-11-19T08:54:03.408Z,1628.00
2017-11-19T08:55:03.398Z,1560.00
2017-11-19T08:56:03.397Z,1548.00
2017-11-19T08:57:03.384Z,1612.00
2017-11-19T08:58:03.377Z,1556.00
2017-11-19T08:59:03.371Z,1616.00
2017-11-19T09:00:03.364Z,1840.00
2017-11-19T09:01:03.358Z,2020.00
2017-11-19T09:02:03.351Z,2444.00
2017-11-19T09:03:03.346Z,2776.00
2017-11-19T09:04:03.340Z,3632.00
2017-11-19T09:05:03.341Z,4772.00
2017-11-19T09:06:03.326Z,5308.00
2017-11-19T09:07:03.369Z,4652.00
2017-11-19T09:08:03.315Z,3904.00
2017-11-19T09:09:03.308Z,2368.00
2017-11-19T09:10:03.303Z,1488.00
2017-11-19T09:11:03.297Z,1968.00
2017-11-19T09:12:03.292Z,2388.00
2017-11-19T09:13:03.284Z,2400.00
2017-11-19T09:14:03.277Z,2464.00
2017-11-19T09:15:03.276Z,2684.00
2017-11-19T09:16:03.267Z,2940.00
2017-11-19T09:17:03.259Z,2776.00
2017-11-19T09:18:03.253Z,2500.00
2017-11-19T09:19:03.297Z,2712.00
2017-11-19T09:20:03.241Z,3000.00
2017-11-19T09:21:03.236Z,2976.00
2017-11-19T09:22:03.380Z,2644.00
2017-11-19T09:23:03.222Z,2652.00
2017-11-19T09:24:03.220Z,2624.00
2017-11-19T09:25:03.211Z,2588.00
2017-11-19T09:26:03.211Z,2748.00
2017-11-19T09:27:03.200Z,2876.00
2017-11-19T09:28:03.193Z,2820.00
2017-11-19T09:29:03.188Z,2972.00
2017-11-19T09:30:03.180Z,2784.00
2017-11-19T09:31:03.174Z,3176.00
2017-11-19T09:32:03.169Z,3208.00
2017-11-19T09:33:03.163Z,3172.00
2017-11-19T09:34:03.161Z,3240.00
2017-11-19T09:35:03.151Z,3152.00
2017-11-19T09:36:03.145Z,2804.00
2017-11-19T09:37:03.138Z,2736.00
2017-11-19T09:38:03.133Z,2704.00
2017-11-19T09:39:03.127Z,2784.00
2017-11-19T09:40:03.122Z,2764.00
2017-11-19T09:41:03.114Z,2692.00
2017-11-19T09:42:03.160Z,2624.00
2017-11-19T09:43:03.103Z,2476.00
2017-11-19T09:44:03.097Z,2480.00
2017-11-19T09:45:03.096Z,2624.00
2017-11-19T09:46:03.086Z,2656.00
2017-11-19T09:47:03.087Z,2652.00
2017-11-19T09:48:03.073Z,2544.00
2017-11-19T09:49:03.068Z,2472.00
2017-11-19T09:50:03.060Z,2528.00
2017-11-19T09:51:03.055Z,2480.00
2017-11-19T09:52:03.048Z,2432.00
2017-11-19T09:53:03.043Z,2332.00
2017-11-19T09:54:03.035Z,2324.00
2017-11-19T09:55:03.031Z,2436.00
2017-11-19T09:56:03.024Z,2772.00
2017-11-19T09:57:03.019Z,2600.00
2017-11-19T09:58:03.013Z,2268.00
2017-11-19T09:59:03.007Z,1868.00
2017-11-19T10:00:03.001Z,1640.00
2017-11-19T10:01:02.996Z,1500.00
2017-11-19T10:02:03.038Z,1384.00
2017-11-19T10:03:02.995Z,1352.00
2017-11-19T10:04:02.979Z,1332.00
2017-11-19T10:05:02.971Z,1284.00
2017-11-19T10:06:02.965Z,1272.00
2017-11-19T10:07:02.959Z,1248.00
2017-11-19T10:08:02.954Z,1176.00
2017-11-19T10:09:02.947Z,1112.00
2017-11-19T10:10:02.941Z,1136.00
2017-11-19T10:11:02.934Z,1220.00
2017-11-19T10:12:02.935Z,1264.00
2017-11-19T10:13:02.923Z,1252.00
2017-11-19T10:14:02.916Z,1268.00
2017-11-19T10:15:02.912Z,1268.00
2017-11-19T10:16:02.907Z,1244.00
2017-11-19T10:17:02.899Z,1264.00
2017-11-19T10:18:02.893Z,1368.00
2017-11-19T10:19:02.886Z,1404.00
2017-11-19T10:20:02.885Z,1468.00
2017-11-19T10:21:02.875Z,1524.00
2017-11-19T10:22:02.871Z,1496.00
2017-11-19T10:23:02.864Z,1436.00
2017-11-19T10:24:02.858Z,1336.00
2017-11-19T10:25:02.851Z,1288.00
2017-11-19T10:26:02.845Z,1348.00
2017-11-19T10:27:02.838Z,1468.00
2017-11-19T10:28:02.833Z,1436.00
2017-11-19T10:29:02.825Z,1416.00
2017-11-19T10:30:02.821Z,1456.00
2017-11-19T10:31:02.813Z,1524.00
2017-11-19T10:32:02.810Z,1476.00
2017-11-19T10:33:02.801Z,1404.00
2017-11-19T10:34:02.795Z,1424.00
2017-11-19T10:35:02.796Z,1300.00
2017-11-19T10:36:02.782Z,1228.00
2017-11-19T10:37:02.776Z,1240.00
2017-11-19T10:38:02.769Z,1292.00
2017-11-19T10:39:02.765Z,1460.00
2017-11-19T10:40:02.758Z,1548.00
2017-11-19T10:41:02.753Z,1644.00
2017-11-19T10:42:02.746Z,1740.00
2017-11-19T10:43:02.739Z,1736.00
2017-11-19T10:44:02.734Z,1772.00
2017-11-19T10:45:02.729Z,1732.00
2017-11-19T10:46:02.722Z,1852.00
2017-11-19T10:47:02.715Z,1948.00
2017-11-19T10:48:02.707Z,2108.00
2017-11-19T10:49:02.753Z,2116.00
2017-11-19T10:50:02.699Z,2244.00
2017-11-19T10:51:02.691Z,2456.00
2017-11-19T10:52:02.683Z,2688.00
2017-11-19T10:53:02.678Z,2448.00
2017-11-19T10:54:02.672Z,2356.00
2017-11-19T10:55:02.665Z,2256.00
2017-11-19T10:56:02.659Z,2328.00
2017-11-19T10:57:02.654Z,2636.00
2017-11-19T10:58:02.647Z,2956.00
2017-11-19T10:59:02.641Z,3080.00
2017-11-19T11:00:02.635Z,3040.00
2017-11-19T11:01:02.630Z,2820.00
2017-11-19T11:02:02.623Z,2948.00
2017-11-19T11:03:02.624Z,3004.00
2017-11-19T11:04:02.612Z,3280.00
2017-11-19T11:05:02.622Z,3336.00
2017-11-19T11:06:02.600Z,3236.00
2017-11-19T11:07:02.594Z,3240.00
2017-11-19T11:08:02.588Z,3256.00
2017-11-19T11:09:02.634Z,3416.00
2017-11-19T11:10:02.576Z,2820.00
2017-11-19T11:11:02.572Z,2152.00
2017-11-19T11:12:02.566Z,1808.00
2017-11-19T11:13:02.560Z,1760.00
2017-11-19T11:14:02.553Z,1660.00
2017-11-19T11:15:02.548Z,1584.00
2017-11-19T11:16:02.542Z,1612.00
2017-11-19T11:17:02.538Z,1744.00
2017-11-19T11:18:02.529Z,1696.00
2017-11-19T11:19:02.578Z,1696.00
2017-11-19T11:20:02.518Z,1600.00
2017-11-19T11:21:02.513Z,1812.00
2017-11-19T11:22:02.505Z,1984.00
2017-11-19T11:23:02.501Z,2104.00
2017-11-19T11:24:02.495Z,2096.00
2017-11-19T11:25:02.512Z,2348.00
2017-11-19T11:26:02.481Z,2964.00
2017-11-19T11:27:02.487Z,3500.00
2017-11-19T11:28:02.471Z,3448.00
2017-11-19T11:29:02.465Z,3240.00
2017-11-19T11:30:02.475Z,2824.00
2017-11-19T11:31:02.453Z,2268.00
2017-11-19T11:32:02.446Z,1360.00
2017-11-19T11:33:02.441Z,1200.00
2017-11-19T11:34:02.434Z,1644.00
2017-11-19T11:35:02.429Z,1764.00
2017-11-19T11:36:02.423Z,1396.00
2017-11-19T11:37:02.417Z,1060.00
2017-11-19T11:38:02.411Z,940.00
2017-11-19T11:39:02.406Z,1044.00
2017-11-19T11:40:02.399Z,1276.00
2017-11-19T11:41:02.394Z,1284.00
2017-11-19T11:42:02.387Z,1244.00
2017-11-19T11:43:02.382Z,1560.00
2017-11-19T11:44:02.376Z,1700.00
2017-11-19T11:45:02.373Z,2084.00
2017-11-19T11:46:02.363Z,2756.00
2017-11-19T11:47:02.357Z,3068.00
2017-11-19T11:48:02.352Z,2724.00
2017-11-19T11:49:02.345Z,2392.00
2017-11-19T11:50:02.339Z,2656.00
2017-11-19T11:51:02.332Z,3160.00
2017-11-19T11:52:02.331Z,3184.00
2017-11-19T11:53:02.322Z,2556.00
2017-11-19T11:54:02.314Z,2112.00
2017-11-19T11:55:02.309Z,2240.00
2017-11-19T11:56:02.302Z,2940.00
2017-11-19T11:57:02.297Z,2720.00
2017-11-19T11:58:02.291Z,2744.00
2017-11-19T11:59:02.284Z,2512.00
2017-11-19T12:00:02.278Z,2056.00
2017-11-19T12:01:02.272Z,1696.00
2017-11-19T12:02:02.265Z,1560.00
2017-11-19T12:03:02.260Z,1496.00
2017-11-19T12:04:02.255Z,1248.00
2017-11-19T12:05:02.249Z,1172.00
2017-11-19T12:06:02.243Z,1184.00
2017-11-19T12:07:02.236Z,1072.00
2017-11-19T12:08:02.231Z,1044.00
2017-11-19T12:09:02.273Z,1168.00
2017-11-19T12:10:02.217Z,1352.00
2017-11-19T12:11:02.211Z,1532.00
2017-11-19T12:12:02.204Z,1628.00
2017-11-19T12:13:02.198Z,1620.00
2017-11-19T12:14:02.193Z,1684.00
2017-11-19T12:15:02.185Z,2172.00
2017-11-19T12:16:02.182Z,2572.00
2017-11-19T12:17:02.176Z,2404.00
2017-11-19T12:18:02.167Z,2128.00
2017-11-19T12:19:02.160Z,1852.00
2017-11-19T12:20:02.154Z,1676.00
2017-11-19T12:21:02.151Z,1528.00
2017-11-19T12:22:02.142Z,1544.00
2017-11-19T12:23:02.135Z,1400.00
2017-11-19T12:24:02.129Z,1292.00
2017-11-19T12:25:02.124Z,1388.00
2017-11-19T12:26:02.116Z,1692.00
2017-11-19T12:27:02.111Z,1912.00
2017-11-19T12:28:02.106Z,1988.00
2017-11-19T12:29:02.098Z,2460.00
2017-11-19T12:30:02.096Z,2260.00
2017-11-19T12:31:02.086Z,2216.00
2017-11-19T12:32:02.079Z,2192.00
2017-11-19T12:33:02.074Z,1912.00
2017-11-19T12:34:02.115Z,1608.00
2017-11-19T12:35:02.061Z,1448.00
2017-11-19T12:36:02.054Z,1324.00
2017-11-19T12:37:02.050Z,1820.00
2017-11-19T12:38:02.042Z,2208.00
2017-11-19T12:39:02.036Z,2116.00
2017-11-19T12:40:02.030Z,1832.00
2017-11-19T12:41:02.024Z,1900.00
2017-11-19T12:42:02.018Z,3636.00
2017-11-19T12:43:02.012Z,5480.00
2017-11-19T12:44:02.007Z,4496.00
2017-11-19T12:45:02.001Z,3408.00
2017-11-19T12:46:01.993Z,3096.00